Time;durP1;ratioP1;P1;durP2;ratioP2;P2;SDS_P1;SDS_P2;PMS_P1;PMS_P2;Temp;Humidity;BMP_temperature;BMP_pressure;BME280_temperature;BME280_humidity;BME280_pressure;Samples;Min_cycle;Max_cycle;Signal;HPM_P1;HPM_P2
2022/04/26 03:37:05;;;;;;;0.90;0.90;;;;;;;;;;5032084;28;20710;-56
2022/04/26 03:39:53;;;;;;;0.90;0.90;;;;;;;;;;5034788;28;20211;-57
2022/04/26 03:42:40;;;;;;;1.00;1.00;;;;;;;;;;5036180;28;20215;-56
2022/04/26 03:45:27;;;;;;;1.20;1.20;;;;;;;;;;5038353;28;20318;-57
2022/04/26 03:48:14;;;;;;;1.30;1.30;;;;;;;;;;5048444;28;20260;-57
2022/04/26 03:51:01;;;;;;;1.47;1.37;;;;;;;;;;5046792;28;20695;-56
2022/04/26 03:53:48;;;;;;;1.67;1.57;;;;;;;;;;5049901;28;20324;-57
2022/04/26 03:56:36;;;;;;;1.30;1.20;;;;;;;;;;5047186;28;20299;-56
2022/04/26 03:59:23;;;;;;;1.57;1.47;;;;;;;;;;5052175;28;20295;-56
2022/04/26 04:02:10;;;;;;;1.13;1.13;;;;;;;;;;5048212;28;20294;-57
2022/04/26 04:04:57;;;;;;;1.40;1.30;;;;;;;;;;5045505;28;20307;-56
2022/04/26 04:07:44;;;;;;;1.20;1.20;;;;;;;;;;5046366;28;20250;-57
2022/04/26 04:10:31;;;;;;;1.27;1.23;;;;;;;;;;5049941;28;20336;-56
2022/04/26 04:13:19;;;;;;;1.10;1.10;;;;;;;;;;5047677;28;20333;-56
2022/04/26 04:16:06;;;;;;;1.10;1.10;;;;;;;;;;5047763;28;20293;-56
2022/04/26 04:21:58;;;;;;;1.50;1.40;;;;;;;;;;5048982;28;20761;-57
2022/04/26 04:24:44;;;;;;;1.33;1.33;;;;;;;;;;5050030;28;20290;-57
2022/04/26 04:27:32;;;;;;;1.10;1.10;;;;;;;;;;5049262;28;20285;-56
2022/04/26 04:30:20;;;;;;;1.17;1.17;;;;;;;;;;5049076;28;20206;-57
2022/04/26 04:33:07;;;;;;;1.50;1.40;;;;;;;;;;5049460;28;20210;-56
2022/04/26 04:35:55;;;;;;;1.10;1.10;;;;;;;;;;5048609;28;20342;-57
2022/04/26 04:38:42;;;;;;;1.27;1.27;;;;;;;;;;5055465;28;20219;-56
2022/04/26 04:41:35;;;;;;;1.53;1.43;;;;;;;;;;5051244;28;20214;-56
2022/04/26 04:44:23;;;;;;;1.60;1.50;;;;;;;;;;5047883;28;20270;-56
2022/04/26 04:47:11;;;;;;;1.80;1.70;;;;;;;;;;5047535;28;20239;-56
2022/04/26 04:49:58;;;;;;;1.90;1.80;;;;;;;;;;5056989;28;20203;-57
2022/04/26 04:52:45;;;;;;;2.13;1.93;;;;;;;;;;5050351;28;20321;-57
2022/04/26 04:55:33;;;;;;;2.13;2.03;;;;;;;;;;5057755;28;20223;-57
2022/04/26 04:58:19;;;;;;;2.90;2.60;;;;;;;;;;5053053;28;20267;-56
2022/04/26 05:01:06;;;;;;;3.07;2.57;;;;;;;;;;5054379;28;20247;-56
2022/04/26 05:03:55;;;;;;;3.03;2.73;;;;;;;;;;5052396;28;20297;-57
2022/04/26 05:06:42;;;;;;;3.20;2.90;;;;;;;;;;5052425;28;20288;-56
2022/04/26 05:09:29;;;;;;;3.00;2.80;;;;;;;;;;5053811;28;20700;-56
2022/04/26 05:12:16;;;;;;;3.30;3.03;;;;;;;;;;5050806;28;20216;-56
2022/04/26 05:15:04;;;;;;;3.00;2.80;;;;;;;;;;5058418;28;20243;-56
2022/04/26 05:17:51;;;;;;;3.20;2.90;;;;;;;;;;5058752;28;20723;-56
2022/04/26 05:20:39;;;;;;;3.10;2.80;;;;;;;;;;5052098;28;20249;-56
2022/04/26 05:26:31;;;;;;;3.63;3.33;;;;;;;;;;5053093;28;20209;-57
2022/04/26 05:29:17;;;;;;;3.07;2.77;;;;;;;;;;5051671;28;20264;-57
2022/04/26 05:32:05;;;;;;;5.10;3.10;;;;;;;;;;5050040;28;20242;-56
2022/04/26 05:34:56;;;;;;;3.13;2.70;;;;;;;;;;5051973;28;20312;-56
2022/04/26 05:37:45;;;;;;;2.90;2.70;;;;;;;;;;5052634;28;20225;-57
2022/04/26 05:40:31;;;;;;;2.97;2.77;;;;;;;;;;5051702;28;20230;-57
2022/04/26 05:43:18;;;;;;;2.80;2.60;;;;;;;;;;5052109;28;20238;-56
2022/04/26 05:46:05;;;;;;;3.07;2.80;;;;;;;;;;5049105;28;20361;-57
2022/04/26 05:48:55;;;;;;;2.87;2.67;;;;;;;;;;5055513;28;20206;-56
2022/04/26 05:51:42;;;;;;;2.87;2.67;;;;;;;;;;5056269;28;20242;-56
2022/04/26 05:54:30;;;;;;;2.63;2.43;;;;;;;;;;5051632;28;20325;-56
2022/04/26 05:57:18;;;;;;;3.00;2.70;;;;;;;;;;5053997;28;20316;-56
2022/04/26 06:00:06;;;;;;;2.63;2.43;;;;;;;;;;5050119;28;20676;-56
2022/04/26 06:02:53;;;;;;;3.17;2.88;;;;;;;;;;5049799;28;20229;-57
2022/04/26 06:05:41;;;;;;;2.40;2.30;;;;;;;;;;5048026;28;20211;-54
2022/04/26 06:08:28;;;;;;;2.38;2.28;;;;;;;;;;5049905;28;20218;-54
2022/04/26 06:11:16;;;;;;;2.60;2.40;;;;;;;;;;5051877;28;20289;-56
2022/04/26 06:14:04;;;;;;;2.42;2.33;;;;;;;;;;5049775;28;20210;-55
2022/04/26 06:16:51;;;;;;;2.60;2.40;;;;;;;;;;5053142;28;20242;-55
2022/04/26 06:19:38;;;;;;;2.13;2.03;;;;;;;;;;5049226;28;20237;-55
2022/04/26 06:22:25;;;;;;;2.53;2.33;;;;;;;;;;5050570;28;20674;-55
2022/04/26 06:25:14;;;;;;;2.60;2.47;;;;;;;;;;5049793;28;20577;-55
2022/04/26 06:28:03;;;;;;;2.10;2.00;;;;;;;;;;5058874;28;20560;-55
2022/04/26 06:30:50;;;;;;;2.30;2.08;;;;;;;;;;5049303;28;20208;-55
2022/04/26 06:33:37;;;;;;;1.80;1.70;;;;;;;;;;5049455;28;20581;-56
2022/04/26 06:36:24;;;;;;;2.15;1.98;;;;;;;;;;5050878;28;20202;-56
2022/04/26 06:39:11;;;;;;;1.88;1.77;;;;;;;;;;5052268;28;20219;-56
2022/04/26 06:41:58;;;;;;;1.90;1.80;;;;;;;;;;5056828;28;20211;-57
2022/04/26 06:44:46;;;;;;;1.92;1.80;;;;;;;;;;5050676;28;20239;-56
2022/04/26 06:47:33;;;;;;;1.95;1.85;;;;;;;;;;5047857;28;20293;-56
2022/04/26 06:50:20;;;;;;;1.88;1.77;;;;;;;;;;5050525;28;20689;-56
2022/04/26 06:53:07;;;;;;;1.73;1.63;;;;;;;;;;5048028;28;20228;-56
2022/04/26 06:55:54;;;;;;;1.65;1.55;;;;;;;;;;5049906;28;20304;-56
2022/04/26 06:58:41;;;;;;;1.63;1.58;;;;;;;;;;5050611;28;20297;-53
2022/04/26 07:01:29;;;;;;;1.67;1.58;;;;;;;;;;5050842;28;20336;-54
2022/04/26 07:04:17;;;;;;;1.80;1.70;;;;;;;;;;5049572;28;20234;-54
2022/04/26 07:07:05;;;;;;;1.58;1.50;;;;;;;;;;5048683;28;20281;-55
2022/04/26 07:09:52;;;;;;;1.75;1.65;;;;;;;;;;5048594;28;20208;-54
2022/04/26 07:12:39;;;;;;;1.30;1.20;;;;;;;;;;5050541;28;20246;-53
2022/04/26 07:15:25;;;;;;;1.42;1.33;;;;;;;;;;5046706;28;20308;-53
2022/04/26 07:18:14;;;;;;;1.20;1.20;;;;;;;;;;5049351;28;20298;-54
2022/04/26 07:21:01;;;;;;;1.27;1.27;;;;;;;;;;5049301;28;20251;-55
2022/04/26 07:23:48;;;;;;;1.23;1.23;;;;;;;;;;5047239;28;20774;-56
2022/04/26 07:26:35;;;;;;;1.23;1.23;;;;;;;;;;5049069;28;20741;-56
2022/04/26 07:29:22;;;;;;;1.17;1.17;;;;;;;;;;5056444;28;20265;-55
2022/04/26 07:32:09;;;;;;;0.63;0.63;;;;;;;;;;5051136;28;20736;-56
2022/04/26 07:35:00;;;;;;;1.40;1.40;;;;;;;;;;5047871;28;20313;-56
2022/04/26 07:37:47;;;;;;;1.10;1.10;;;;;;;;;;5049123;28;20216;-56
2022/04/26 07:40:34;;;;;;;1.17;1.17;;;;;;;;;;5047622;28;20247;-55
2022/04/26 07:43:21;;;;;;;1.10;1.10;;;;;;;;;;5050509;28;20206;-55
2022/04/26 07:46:08;;;;;;;1.30;1.30;;;;;;;;;;5047054;28;20226;-55
2022/04/26 07:48:56;;;;;;;1.25;1.25;;;;;;;;;;5047869;28;20346;-57
2022/04/26 07:51:44;;;;;;;0.90;0.90;;;;;;;;;;5049223;28;20355;-56
2022/04/26 07:54:31;;;;;;;0.95;0.95;;;;;;;;;;5052337;28;20200;-56
2022/04/26 07:57:18;;;;;;;0.77;0.77;;;;;;;;;;5049697;28;20301;-57
2022/04/26 08:00:06;;;;;;;1.00;1.00;;;;;;;;;;5049778;28;20745;-56
2022/04/26 08:02:55;;;;;;;0.93;0.93;;;;;;;;;;5048754;28;20235;-56
2022/04/26 08:05:42;;;;;;;1.00;1.00;;;;;;;;;;5049385;28;20211;-56
2022/04/26 08:08:30;;;;;;;1.25;1.23;;;;;;;;;;5049551;28;20288;-57
2022/04/26 08:11:17;;;;;;;1.00;1.00;;;;;;;;;;5047084;28;20231;-56
2022/04/26 08:14:04;;;;;;;1.00;1.00;;;;;;;;;;5053591;28;20599;-54
2022/04/26 08:16:52;;;;;;;1.00;1.00;;;;;;;;;;5048304;28;20220;-54
2022/04/26 08:19:39;;;;;;;0.80;0.80;;;;;;;;;;5050705;28;20691;-54
2022/04/26 08:22:26;;;;;;;1.02;1.00;;;;;;;;;;5046532;28;20289;-54
2022/04/26 08:28:19;;;;;;;1.10;1.10;;;;;;;;;;5052193;28;20203;-55
2022/04/26 08:31:06;;;;;;;1.95;0.98;;;;;;;;;;5052336;28;20250;-55
2022/04/26 08:33:53;;;;;;;1.00;1.00;;;;;;;;;;5051870;28;20365;-55
2022/04/26 08:36:40;;;;;;;1.15;1.08;;;;;;;;;;5054915;28;20288;-54
2022/04/26 08:39:27;;;;;;;1.13;1.13;;;;;;;;;;5051228;28;20277;-54
2022/04/26 08:42:16;;;;;;;1.38;1.27;;;;;;;;;;5057308;28;20203;-56
2022/04/26 08:45:06;;;;;;;1.23;1.17;;;;;;;;;;5050520;28;20305;-55
2022/04/26 08:51:00;;;;;;;1.13;1.13;;;;;;;;;;5050404;28;20214;-55
2022/04/26 08:53:48;;;;;;;1.35;1.35;;;;;;;;;;5051303;28;20712;-55
2022/04/26 08:56:35;;;;;;;1.08;1.08;;;;;;;;;;5053629;28;20774;-55
2022/04/26 08:59:23;;;;;;;1.10;1.10;;;;;;;;;;5049904;28;20683;-56
2022/04/26 09:02:18;;;;;;;0.88;0.88;;;;;;;;;;5053929;28;20200;-55
2022/04/26 09:05:10;;;;;;;1.10;1.10;;;;;;;;;;5051079;28;20215;-55
2022/04/26 09:07:58;;;;;;;1.15;1.15;;;;;;;;;;5056111;28;20207;-56
2022/04/26 09:10:47;;;;;;;1.17;1.17;;;;;;;;;;5049787;28;20196;-55
2022/04/26 09:13:40;;;;;;;1.25;1.25;;;;;;;;;;5051380;28;20251;-55
2022/04/26 09:16:28;;;;;;;0.93;0.93;;;;;;;;;;5049725;28;20242;-55
2022/04/26 09:19:15;;;;;;;1.00;1.00;;;;;;;;;;5053451;28;20283;-55
2022/04/26 09:22:02;;;;;;;1.10;1.10;;;;;;;;;;5049710;28;20687;-56
2022/04/26 09:25:02;;;;;;;1.10;1.10;;;;;;;;;;5051299;28;20211;-55
2022/04/26 09:27:49;;;;;;;1.33;1.23;;;;;;;;;;5054110;28;20283;-56
2022/04/26 09:30:37;;;;;;;1.08;1.08;;;;;;;;;;5052466;28;20298;-55
2022/04/26 09:33:40;;;;;;;2.25;0.93;;;;;;;;;;5051200;28;20214;-55
2022/04/26 09:36:29;;;;;;;0.77;0.77;;;;;;;;;;5055155;28;20223;-55
2022/04/26 09:39:18;;;;;;;1.35;1.05;;;;;;;;;;5049345;28;20218;-56
2022/04/26 09:42:05;;;;;;;1.10;1.00;;;;;;;;;;5051870;28;20289;-55
2022/04/26 09:45:04;;;;;;;1.55;1.25;;;;;;;;;;5053981;28;20290;-56
2022/04/26 09:47:51;;;;;;;1.05;1.05;;;;;;;;;;5049863;28;20200;-55
2022/04/26 09:50:40;;;;;;;0.95;0.95;;;;;;;;;;5053900;28;20676;-55
2022/04/26 09:53:27;;;;;;;0.80;0.80;;;;;;;;;;5052097;28;20293;-56
2022/04/26 09:56:15;;;;;;;1.27;1.20;;;;;;;;;;5051495;28;20284;-56
2022/04/26 09:59:04;;;;;;;1.10;1.10;;;;;;;;;;5052850;28;20204;-56
2022/04/26 10:01:54;;;;;;;0.95;0.95;;;;;;;;;;5051530;28;20670;-56
2022/04/26 10:04:47;;;;;;;1.20;1.10;;;;;;;;;;5050930;28;20209;-56
2022/04/26 10:07:37;;;;;;;0.90;0.90;;;;;;;;;;5049077;28;20241;-55
2022/04/26 10:10:27;;;;;;;1.23;1.23;;;;;;;;;;5051466;28;20209;-55
2022/04/26 10:13:35;;;;;;;0.82;0.82;;;;;;;;;;5049878;28;20943;-55
2022/04/26 10:16:23;;;;;;;0.93;0.93;;;;;;;;;;5047925;28;20233;-55
2022/04/26 10:19:12;;;;;;;1.23;1.05;;;;;;;;;;5049596;28;20284;-56
2022/04/26 10:21:59;;;;;;;1.00;1.00;;;;;;;;;;5049150;28;20212;-56
2022/04/26 10:25:12;;;;;;;1.15;1.08;;;;;;;;;;5049640;28;20219;-56
2022/04/26 10:28:23;;;;;;;0.82;0.82;;;;;;;;;;5049923;28;20268;-56
2022/04/26 10:31:12;;;;;;;1.00;1.00;;;;;;;;;;5047136;28;20215;-55
2022/04/26 10:33:59;;;;;;;0.80;0.80;;;;;;;;;;5049337;28;20209;-55
2022/04/26 10:36:47;;;;;;;1.10;1.10;;;;;;;;;;5049626;28;20716;-55
2022/04/26 10:39:36;;;;;;;0.90;0.90;;;;;;;;;;5049442;28;20335;-56
2022/04/26 10:42:29;;;;;;;0.80;0.80;;;;;;;;;;5052336;28;20589;-56
2022/04/26 10:45:16;;;;;;;0.90;0.70;;;;;;;;;;5048972;28;20613;-56
2022/04/26 10:48:27;;;;;;;0.90;0.90;;;;;;;;;;5048046;28;20211;-56
2022/04/26 10:51:34;;;;;;;0.70;0.70;;;;;;;;;;5049517;28;20213;-55
2022/04/26 10:55:03;;;;;;;0.90;0.90;;;;;;;;;;5049925;28;20235;-55
2022/04/26 10:57:52;;;;;;;0.80;0.80;;;;;;;;;;5049723;28;20220;-55
2022/04/26 11:00:41;;;;;;;0.80;0.80;;;;;;;;;;5033217;28;20208;-56
2022/04/26 11:03:28;;;;;;;0.90;0.90;;;;;;;;;;5050200;28;20217;-55
2022/04/26 11:06:32;;;;;;;1.13;0.82;;;;;;;;;;5052890;28;20203;-55
2022/04/26 11:09:19;;;;;;;1.00;0.90;;;;;;;;;;5049451;28;20294;-55
2022/04/26 11:12:06;;;;;;;0.68;0.68;;;;;;;;;;5049698;28;20299;-55
2022/04/26 11:14:56;;;;;;;0.80;0.80;;;;;;;;;;5052074;28;20335;-55
2022/04/26 11:17:44;;;;;;;0.77;0.77;;;;;;;;;;5047277;28;20740;-55
2022/04/26 11:20:35;;;;;;;0.85;0.85;;;;;;;;;;5048244;28;20260;-55
2022/04/26 11:29:54;;;;;;;0.80;0.80;;;;;;;;;;5048949;28;20215;-55
2022/04/26 11:32:43;;;;;;;0.60;0.60;;;;;;;;;;5048199;28;20212;-56
2022/04/26 11:35:31;;;;;;;0.80;0.80;;;;;;;;;;5050939;28;20554;-56
2022/04/26 11:38:18;;;;;;;0.75;0.75;;;;;;;;;;5048275;28;20207;-56
2022/04/26 11:41:06;;;;;;;0.60;0.60;;;;;;;;;;5048160;28;20216;-55
2022/04/26 11:44:04;;;;;;;0.90;0.90;;;;;;;;;;5051567;28;20219;-55
2022/04/26 11:47:02;;;;;;;0.90;0.90;;;;;;;;;;5047261;28;20335;-55
2022/04/26 11:49:49;;;;;;;0.80;0.80;;;;;;;;;;5048037;28;20237;-56
2022/04/26 11:52:36;;;;;;;0.90;0.90;;;;;;;;;;5048460;28;20225;-56
2022/04/26 11:55:26;;;;;;;0.70;0.70;;;;;;;;;;5047702;28;20213;-55
2022/04/26 11:58:18;;;;;;;0.60;0.60;;;;;;;;;;5053653;28;20291;-55
2022/04/26 12:01:07;;;;;;;0.60;0.60;;;;;;;;;;5046601;28;20260;-56
2022/04/26 12:03:59;;;;;;;0.50;0.50;;;;;;;;;;5047312;28;20287;-56
2022/04/26 12:06:46;;;;;;;0.70;0.70;;;;;;;;;;5047695;28;20205;-55
2022/04/26 12:09:33;;;;;;;0.60;0.60;;;;;;;;;;5049532;28;20270;-55
2022/04/26 12:12:20;;;;;;;0.60;0.60;;;;;;;;;;5049293;28;20286;-55
2022/04/26 12:15:07;;;;;;;0.60;0.60;;;;;;;;;;5049114;28;20751;-55
2022/04/26 12:18:13;;;;;;;0.50;0.50;;;;;;;;;;5046460;28;20273;-55
2022/04/26 12:21:02;;;;;;;0.80;0.80;;;;;;;;;;5048389;28;20208;-56
2022/04/26 12:24:09;;;;;;;0.40;0.40;;;;;;;;;;5048389;28;20284;-56
2022/04/26 12:26:57;;;;;;;0.70;0.70;;;;;;;;;;5048634;28;20303;-55
2022/04/26 12:29:46;;;;;;;0.70;0.70;;;;;;;;;;5048044;28;20216;-56
2022/04/26 12:32:41;;;;;;;0.60;0.60;;;;;;;;;;5049577;28;20288;-56
2022/04/26 12:35:28;;;;;;;0.60;0.60;;;;;;;;;;5053826;28;20648;-55
2022/04/26 12:38:16;;;;;;;0.50;0.50;;;;;;;;;;5051518;28;20686;-56
2022/04/26 12:41:06;;;;;;;0.60;0.60;;;;;;;;;;5049258;28;20282;-56
2022/04/26 12:44:02;;;;;;;0.43;0.43;;;;;;;;;;5048429;28;20214;-55
2022/04/26 12:50:27;;;;;;;0.70;0.70;;;;;;;;;;5046043;28;20607;-56
2022/04/26 12:53:05;;;;;;;0.50;0.50;;;;;;;;;;5049149;28;20229;-56
2022/04/26 12:55:54;;;;;;;0.67;0.67;;;;;;;;;;5049655;28;20364;-56
2022/04/26 12:58:42;;;;;;;0.47;0.47;;;;;;;;;;5052037;28;20216;-56
2022/04/26 13:01:29;;;;;;;0.70;0.50;;;;;;;;;;5047790;28;20206;-56
2022/04/26 13:04:16;;;;;;;0.50;0.50;;;;;;;;;;5047611;28;20258;-56
2022/04/26 13:07:04;;;;;;;0.50;0.50;;;;;;;;;;5048752;28;20288;-56
2022/04/26 13:09:51;;;;;;;0.57;0.57;;;;;;;;;;5046517;28;20733;-56
2022/04/26 13:12:39;;;;;;;0.60;0.60;;;;;;;;;;5054719;28;20265;-57
2022/04/26 13:15:27;;;;;;;0.77;0.77;;;;;;;;;;5049409;28;20682;-56
2022/04/26 13:18:15;;;;;;;0.50;0.50;;;;;;;;;;5057647;28;20309;-56
2022/04/26 13:21:03;;;;;;;0.83;0.60;;;;;;;;;;5055451;28;20212;-56
2022/04/26 13:23:51;;;;;;;0.93;0.50;;;;;;;;;;5052149;28;20313;-56
2022/04/26 13:26:38;;;;;;;0.50;0.50;;;;;;;;;;5051471;28;20263;-56
2022/04/26 13:29:27;;;;;;;0.63;0.50;;;;;;;;;;5054531;28;20278;-57
2022/04/26 13:32:14;;;;;;;0.60;0.60;;;;;;;;;;5048951;28;20559;-56
2022/04/26 13:35:02;;;;;;;0.53;0.53;;;;;;;;;;5052305;28;20637;-56
2022/04/26 13:37:50;;;;;;;0.50;0.50;;;;;;;;;;5054379;28;20588;-56
2022/04/26 13:40:37;;;;;;;0.50;0.50;;;;;;;;;;5050473;28;20208;-57
2022/04/26 13:43:24;;;;;;;0.70;0.70;;;;;;;;;;5050139;28;20209;-57
2022/04/26 13:46:13;;;;;;;0.47;0.47;;;;;;;;;;5050830;28;20242;-56
2022/04/26 13:49:00;;;;;;;0.50;0.50;;;;;;;;;;5050376;28;20214;-56
2022/04/26 13:51:46;;;;;;;0.63;0.63;;;;;;;;;;5059424;28;20211;-56
2022/04/26 13:54:34;;;;;;;0.50;0.50;;;;;;;;;;5052826;28;20292;-56
2022/04/26 13:57:21;;;;;;;0.60;0.60;;;;;;;;;;5048264;28;20228;-56
2022/04/26 14:00:10;;;;;;;0.73;0.73;;;;;;;;;;5049430;28;20294;-56
2022/04/26 14:02:59;;;;;;;0.77;0.77;;;;;;;;;;5054390;28;20221;-56
2022/04/26 14:05:46;;;;;;;0.70;0.70;;;;;;;;;;5051438;28;20520;-56
2022/04/26 14:08:36;;;;;;;0.80;0.80;;;;;;;;;;5050878;28;20664;-56
2022/04/26 14:11:24;;;;;;;0.90;0.90;;;;;;;;;;5052392;28;20211;-55
2022/04/26 14:23:25;;;;;;;1.07;1.07;;;;;;;;;;5047739;28;20297;-56
2022/04/26 14:26:13;;;;;;;1.10;1.10;;;;;;;;;;5051522;28;20281;-56
2022/04/26 14:29:00;;;;;;;0.80;0.80;;;;;;;;;;5056635;28;20219;-56
2022/04/26 14:31:48;;;;;;;1.20;1.20;;;;;;;;;;5058829;28;20600;-56
2022/04/26 14:34:36;;;;;;;1.20;1.20;;;;;;;;;;5049631;28;20309;-56
2022/04/26 14:37:24;;;;;;;1.13;1.13;;;;;;;;;;5050201;28;20258;-56
2022/04/26 14:40:12;;;;;;;1.10;1.10;;;;;;;;;;5051201;28;20301;-56
2022/04/26 14:42:59;;;;;;;1.47;1.40;;;;;;;;;;5047920;28;20218;-56
2022/04/26 14:45:46;;;;;;;1.10;1.10;;;;;;;;;;5045139;28;20283;-56
2022/04/26 14:48:33;;;;;;;1.20;1.20;;;;;;;;;;5038108;28;20610;-56
2022/04/26 14:51:20;;;;;;;1.20;1.20;;;;;;;;;;5041627;28;20678;-56
2022/04/26 14:54:08;;;;;;;1.30;1.30;;;;;;;;;;5040548;28;20238;-56
2022/04/26 14:56:55;;;;;;;1.27;1.27;;;;;;;;;;5039910;28;20658;-56
2022/04/26 14:59:46;;;;;;;1.50;1.50;;;;;;;;;;5038498;28;20291;-56
2022/04/26 15:02:38;;;;;;;1.30;1.30;;;;;;;;;;5034558;28;20216;-56
2022/04/26 15:05:26;;;;;;;1.40;1.30;;;;;;;;;;5039619;28;20256;-56
2022/04/26 15:11:19;;;;;;;1.27;1.27;;;;;;;;;;5038812;28;20220;-56
2022/04/26 15:17:10;;;;;;;1.87;1.77;;;;;;;;;;5045380;28;20681;-56
2022/04/26 15:19:59;;;;;;;1.30;1.20;;;;;;;;;;5033634;28;20907;-56
2022/04/26 15:22:46;;;;;;;1.30;1.20;;;;;;;;;;5043303;28;20733;-55
2022/04/26 15:25:35;;;;;;;1.20;1.20;;;;;;;;;;5035753;28;20241;-55
2022/04/26 15:28:25;;;;;;;1.27;1.27;;;;;;;;;;5034989;28;20688;-55
2022/04/26 15:31:16;;;;;;;1.13;1.13;;;;;;;;;;5033806;28;20213;-56
2022/04/26 15:34:03;;;;;;;1.20;1.20;;;;;;;;;;5037784;28;20573;-56
2022/04/26 15:36:50;;;;;;;1.30;1.30;;;;;;;;;;5036013;28;20272;-56
2022/04/26 15:39:37;;;;;;;1.33;1.33;;;;;;;;;;5040039;28;20248;-56
2022/04/26 15:42:24;;;;;;;1.20;1.10;;;;;;;;;;5032624;28;20382;-55
2022/04/26 15:45:12;;;;;;;1.17;1.17;;;;;;;;;;5038156;28;20309;-55
2022/04/26 15:48:00;;;;;;;1.17;1.17;;;;;;;;;;5050006;28;20209;-55
2022/04/26 15:50:47;;;;;;;1.30;1.20;;;;;;;;;;5051118;28;20223;-55
2022/04/26 15:53:34;;;;;;;1.10;1.10;;;;;;;;;;5048313;28;20317;-56
2022/04/26 15:56:21;;;;;;;1.20;1.20;;;;;;;;;;5052130;28;20253;-56
2022/04/26 15:59:09;;;;;;;1.47;1.37;;;;;;;;;;5049404;28;20652;-56
2022/04/26 16:01:57;;;;;;;0.90;0.90;;;;;;;;;;5050579;28;20215;-57
2022/04/26 16:04:44;;;;;;;1.30;1.30;;;;;;;;;;5047566;28;20262;-55
2022/04/26 16:07:31;;;;;;;1.17;1.17;;;;;;;;;;5047715;28;20268;-56
2022/04/26 16:22:36;;;;;;;0.83;0.83;;;;;;;;;;5060785;28;20683;-56
2022/04/26 16:25:23;;;;;;;1.07;1.07;;;;;;;;;;5051960;28;20329;-56
2022/04/26 16:28:10;;;;;;;1.13;1.13;;;;;;;;;;5049355;28;20249;-56
2022/04/26 16:30:57;;;;;;;1.17;1.17;;;;;;;;;;5050537;28;20214;-56
2022/04/26 16:33:44;;;;;;;0.90;0.90;;;;;;;;;;5048794;28;20216;-56
2022/04/26 16:36:32;;;;;;;0.90;0.90;;;;;;;;;;5046863;28;20732;-57
2022/04/26 16:39:19;;;;;;;0.87;0.87;;;;;;;;;;5048886;28;20295;-57
2022/04/26 16:42:06;;;;;;;1.23;1.10;;;;;;;;;;5058504;28;20247;-55
2022/04/26 16:44:53;;;;;;;1.20;1.10;;;;;;;;;;5050134;28;20816;-56
2022/04/26 16:47:40;;;;;;;1.07;1.07;;;;;;;;;;5051664;28;20210;-55
2022/04/26 16:50:27;;;;;;;2.10;1.30;;;;;;;;;;5054535;28;20644;-55
2022/04/26 16:53:16;;;;;;;1.17;1.17;;;;;;;;;;5056242;28;20323;-55
2022/04/26 16:56:03;;;;;;;1.23;1.13;;;;;;;;;;5059360;28;20281;-55
2022/04/26 16:58:50;;;;;;;1.07;1.07;;;;;;;;;;5053801;28;20233;-55
2022/04/26 17:01:38;;;;;;;1.03;1.03;;;;;;;;;;5050295;28;20241;-55
2022/04/26 17:04:26;;;;;;;1.17;1.13;;;;;;;;;;5050232;28;20208;-56
2022/04/26 17:07:13;;;;;;;1.07;1.07;;;;;;;;;;5052036;28;20217;-56
2022/04/26 17:10:01;;;;;;;1.10;1.10;;;;;;;;;;5052782;28;20228;-56
2022/04/26 17:12:49;;;;;;;0.70;0.70;;;;;;;;;;5052190;28;20575;-56
2022/04/26 17:15:36;;;;;;;1.30;1.20;;;;;;;;;;5054495;28;20254;-56
2022/04/26 17:18:23;;;;;;;0.80;0.80;;;;;;;;;;5055282;28;20268;-56
2022/04/26 17:21:10;;;;;;;0.93;0.93;;;;;;;;;;5054722;28;20271;-56
2022/04/26 17:23:57;;;;;;;1.07;0.80;;;;;;;;;;5056028;28;20215;-56
2022/04/26 17:26:45;;;;;;;0.80;0.80;;;;;;;;;;5050781;28;20347;-56
2022/04/26 17:29:33;;;;;;;0.83;0.83;;;;;;;;;;5052225;28;20257;-56
2022/04/26 17:32:21;;;;;;;1.03;0.93;;;;;;;;;;5049837;28;20203;-56
2022/04/26 17:35:09;;;;;;;0.73;0.73;;;;;;;;;;5051746;28;20219;-56
2022/04/26 17:37:56;;;;;;;0.93;0.93;;;;;;;;;;5053517;28;20230;-56
2022/04/26 17:40:43;;;;;;;0.80;0.80;;;;;;;;;;5050279;28;20214;-56
2022/04/26 17:43:33;;;;;;;0.70;0.70;;;;;;;;;;5051267;28;20210;-56
2022/04/26 17:46:21;;;;;;;0.67;0.67;;;;;;;;;;5049073;28;20246;-56
2022/04/26 17:49:08;;;;;;;1.13;0.73;;;;;;;;;;5051268;28;20644;-56
2022/04/26 17:51:55;;;;;;;0.90;0.90;;;;;;;;;;5050622;28;20253;-57
2022/04/26 17:57:51;;;;;;;0.60;0.60;;;;;;;;;;4987808;28;20245;-56
2022/04/26 18:00:40;;;;;;;0.60;0.60;;;;;;;;;;5049834;28;20214;-56
2022/04/26 18:03:27;;;;;;;0.63;0.63;;;;;;;;;;5053413;28;20242;-56
2022/04/26 18:06:14;;;;;;;0.57;0.57;;;;;;;;;;5051117;28;20591;-56
2022/04/26 18:09:01;;;;;;;0.47;0.47;;;;;;;;;;5050357;28;20288;-56
2022/04/26 18:11:47;;;;;;;0.67;0.67;;;;;;;;;;5049857;28;20227;-57
2022/04/26 18:14:34;;;;;;;0.60;0.60;;;;;;;;;;5052220;28;20295;-56
2022/04/26 18:17:23;;;;;;;0.70;0.70;;;;;;;;;;5053160;28;20281;-56
2022/04/26 18:20:10;;;;;;;0.60;0.60;;;;;;;;;;5049947;28;20220;-55
2022/04/26 18:22:57;;;;;;;0.60;0.60;;;;;;;;;;5051035;28;20261;-56
2022/04/26 18:28:50;;;;;;;0.47;0.47;;;;;;;;;;5051037;28;20242;-57
2022/04/26 18:31:37;;;;;;;0.77;0.70;;;;;;;;;;5051326;28;20291;-55
2022/04/26 18:34:26;;;;;;;0.40;0.40;;;;;;;;;;5052935;28;20264;-56
2022/04/26 18:37:13;;;;;;;1.07;0.87;;;;;;;;;;5052625;28;20678;-56
2022/04/26 18:40:00;;;;;;;0.50;0.50;;;;;;;;;;5051072;28;20284;-56
2022/04/26 18:42:47;;;;;;;0.60;0.60;;;;;;;;;;5049418;28;20688;-57
2022/04/26 18:45:34;;;;;;;0.60;0.60;;;;;;;;;;5050482;28;20714;-56
2022/04/26 18:48:21;;;;;;;0.50;0.50;;;;;;;;;;5049421;28;20275;-55
2022/04/26 18:51:10;;;;;;;0.47;0.47;;;;;;;;;;5051077;28;20439;-56
2022/04/26 18:53:58;;;;;;;0.83;0.40;;;;;;;;;;5048698;28;20268;-56
2022/04/26 18:56:45;;;;;;;0.40;0.40;;;;;;;;;;5049632;28;20660;-56
2022/04/26 18:59:33;;;;;;;0.40;0.40;;;;;;;;;;5049398;28;20367;-55
2022/04/26 19:02:19;;;;;;;0.50;0.50;;;;;;;;;;5046965;28;20513;-56
2022/04/26 19:05:07;;;;;;;0.60;0.60;;;;;;;;;;5048874;28;20204;-56
2022/04/26 19:07:55;;;;;;;0.60;0.60;;;;;;;;;;5046746;28;20305;-55
2022/04/26 19:13:46;;;;;;;0.50;0.50;;;;;;;;;;5048124;28;20212;-56
2022/04/26 19:16:34;;;;;;;0.90;0.70;;;;;;;;;;5049138;28;20288;-56
2022/04/26 19:19:21;;;;;;;1.03;0.60;;;;;;;;;;5047397;28;20286;-56
2022/04/26 19:22:08;;;;;;;0.40;0.40;;;;;;;;;;5048975;28;20292;-56
2022/04/26 19:24:57;;;;;;;0.50;0.50;;;;;;;;;;5047848;28;20205;-55
2022/04/26 19:27:44;;;;;;;0.50;0.50;;;;;;;;;;5048169;28;20211;-56
2022/04/26 19:30:31;;;;;;;0.37;0.30;;;;;;;;;;5050921;28;20688;-56
2022/04/26 19:33:18;;;;;;;0.50;0.50;;;;;;;;;;5049270;28;20343;-56
2022/04/26 19:36:06;;;;;;;0.40;0.40;;;;;;;;;;5049193;28;20284;-56
2022/04/26 19:38:53;;;;;;;0.30;0.30;;;;;;;;;;5048035;28;20232;-57
2022/04/26 19:41:41;;;;;;;0.33;0.33;;;;;;;;;;5051292;28;20740;-56
2022/04/26 19:44:28;;;;;;;0.40;0.40;;;;;;;;;;5047808;28;20237;-57
2022/04/26 19:47:15;;;;;;;0.40;0.40;;;;;;;;;;5046713;28;20256;-57
2022/04/26 19:53:06;;;;;;;0.60;0.60;;;;;;;;;;5049251;28;20223;-57
2022/04/26 19:55:53;;;;;;;0.30;0.30;;;;;;;;;;5048938;28;20289;-57
2022/04/26 19:58:42;;;;;;;0.40;0.40;;;;;;;;;;5050365;28;20307;-57
2022/04/26 20:01:29;;;;;;;0.60;0.60;;;;;;;;;;5047982;28;20212;-58
2022/04/26 20:04:16;;;;;;;0.63;0.60;;;;;;;;;;5047288;28;20256;-56
2022/04/26 20:07:05;;;;;;;0.30;0.30;;;;;;;;;;5048136;28;20294;-56
2022/04/26 20:09:52;;;;;;;0.40;0.40;;;;;;;;;;5049559;28;20208;-56
2022/04/26 20:12:39;;;;;;;0.63;0.60;;;;;;;;;;5046100;28;20299;-55
2022/04/26 20:15:28;;;;;;;0.50;0.50;;;;;;;;;;5048971;28;20766;-56
2022/04/26 20:18:15;;;;;;;0.50;0.50;;;;;;;;;;5048916;28;20320;-56
2022/04/26 20:21:02;;;;;;;0.50;0.50;;;;;;;;;;5049680;28;20201;-57
2022/04/26 20:23:49;;;;;;;0.60;0.60;;;;;;;;;;5051922;28;20677;-55
2022/04/26 20:29:46;;;;;;;0.50;0.50;;;;;;;;;;5047637;28;20204;-56
2022/04/26 20:32:35;;;;;;;0.40;0.40;;;;;;;;;;5052343;28;20200;-56
2022/04/26 20:35:22;;;;;;;0.47;0.47;;;;;;;;;;5051730;28;20212;-56
2022/04/26 20:38:09;;;;;;;1.13;0.60;;;;;;;;;;5051210;28;20285;-56
2022/04/26 20:40:56;;;;;;;0.50;0.50;;;;;;;;;;5053537;28;20285;-56
2022/04/26 20:43:44;;;;;;;0.43;0.40;;;;;;;;;;5054379;28;20665;-56
2022/04/26 20:46:31;;;;;;;0.50;0.50;;;;;;;;;;5051414;28;20238;-56
2022/04/26 20:49:19;;;;;;;0.30;0.30;;;;;;;;;;5050900;28;20240;-56
2022/04/26 20:52:07;;;;;;;0.67;0.67;;;;;;;;;;5048115;28;20695;-56
2022/04/26 20:54:54;;;;;;;0.40;0.40;;;;;;;;;;5052326;28;20287;-56
2022/04/26 20:57:40;;;;;;;0.60;0.57;;;;;;;;;;5050158;28;20244;-56
2022/04/26 21:00:27;;;;;;;0.40;0.40;;;;;;;;;;5053003;28;20352;-55
2022/04/26 21:03:14;;;;;;;0.43;0.43;;;;;;;;;;5051863;28;20284;-56
2022/04/26 21:06:03;;;;;;;0.50;0.50;;;;;;;;;;5054111;28;20618;-57
2022/04/26 21:08:49;;;;;;;0.40;0.40;;;;;;;;;;5053354;28;20291;-57
2022/04/26 21:11:36;;;;;;;0.50;0.50;;;;;;;;;;5053106;28;20282;-56
2022/04/26 21:14:23;;;;;;;0.30;0.30;;;;;;;;;;5051969;28;20301;-56
2022/04/26 21:17:10;;;;;;;0.47;0.47;;;;;;;;;;5049541;28;20243;-56
2022/04/26 21:19:57;;;;;;;0.40;0.40;;;;;;;;;;5052034;28;20665;-56
2022/04/26 21:22:45;;;;;;;0.50;0.50;;;;;;;;;;5054154;28;20361;-57
2022/04/26 21:25:32;;;;;;;0.50;0.50;;;;;;;;;;5049552;28;20296;-57
2022/04/26 21:28:19;;;;;;;0.40;0.40;;;;;;;;;;5055347;28;20290;-56
2022/04/26 21:31:06;;;;;;;0.60;0.60;;;;;;;;;;5052268;28;20215;-56